createdAt,value
2023-03-08T00:02:11.383Z,99864.53
2023-03-08T00:07:17.498Z,99867.72
2023-03-08T00:12:20.102Z,99861.22
2023-03-08T00:17:24.380Z,99863.28
2023-03-08T00:22:28.417Z,99864.91
2023-03-08T00:27:30.109Z,99856.88
2023-03-08T00:32:34.362Z,99862.94
2023-03-08T00:37:36.061Z,99869.75
2023-03-08T00:42:37.787Z,99865.63
2023-03-08T00:47:42.030Z,99863.53
2023-03-08T00:52:43.684Z,99865.03
2023-03-08T00:57:47.587Z,99859.09
2023-03-08T01:02:51.937Z,99843.16
2023-03-08T01:07:55.917Z,99845.09
2023-03-08T01:13:00.218Z,99846.66
2023-03-08T01:18:01.913Z,99838.06
2023-03-08T01:23:04.612Z,99844.84
2023-03-08T01:28:10.906Z,99843.75
2023-03-08T01:33:12.573Z,99849.28
2023-03-08T01:38:14.398Z,99836.28
2023-03-08T01:43:33.286Z,99830.88
2023-03-08T01:48:48.657Z,99825.34
2023-03-08T01:53:53.837Z,99820.38
2023-03-08T01:58:59.093Z,99821.50
2023-03-08T02:04:04.117Z,99823.47
2023-03-08T02:09:12.776Z,99822.78
2023-03-08T02:14:16.513Z,99818.06
2023-03-08T02:19:47.662Z,99828.63
2023-03-08T02:24:51.454Z,99847.16
2023-03-08T02:29:53.174Z,99833.63
2023-03-08T02:34:54.824Z,99828.91
2023-03-08T02:39:56.466Z,99827.94
2023-03-08T02:44:58.215Z,99820.56
2023-03-08T02:50:02.461Z,99812.53
2023-03-08T02:55:09.596Z,99808.66
2023-03-08T03:00:14.272Z,99808.38
2023-03-08T03:05:16.070Z,99802.47
2023-03-08T03:10:18.182Z,99798.00
2023-03-08T03:15:24.885Z,99794.91
2023-03-08T03:20:33.657Z,99807.00
2023-03-08T03:25:40.722Z,99799.31
2023-03-08T03:30:46.488Z,99811.03
2023-03-08T03:35:58.188Z,99807.59
2023-03-08T03:41:07.329Z,99822.94
2023-03-08T03:46:12.558Z,99824.06
2023-03-08T03:51:21.004Z,99831.84
2023-03-08T03:56:30.269Z,99823.97
2023-03-08T04:01:35.214Z,99819.25
2023-03-08T04:06:49.144Z,99826.25
2023-03-08T04:11:57.015Z,99836.06
2023-03-08T04:17:01.424Z,99828.38
2023-03-08T04:22:11.993Z,99827.16
2023-03-08T04:27:20.145Z,99827.59
2023-03-08T04:32:22.141Z,99831.63
2023-03-08T04:37:31.048Z,99814.66
2023-03-08T04:42:41.976Z,99812.84
2023-03-08T04:47:45.596Z,99816.75
2023-03-08T04:52:48.454Z,99814.69
2023-03-08T04:57:54.998Z,99818.59
2023-03-08T05:03:00.103Z,99814.09
2023-03-08T05:08:05.395Z,99818.88
2023-03-08T05:13:09.586Z,99807.81
2023-03-08T05:18:14.582Z,99803.81
2023-03-08T05:23:16.545Z,99807.41
2023-03-08T05:28:20.097Z,99798.78
2023-03-08T05:33:24.186Z,99794.75
2023-03-08T05:38:32.419Z,99781.91
2023-03-08T05:43:35.239Z,99780.50
2023-03-08T05:48:39.762Z,99780.63
2023-03-08T05:53:42.457Z,99776.59
2023-03-08T05:58:48.579Z,99780.28
2023-03-08T06:03:55.508Z,99780.63
2023-03-08T06:08:58.887Z,99778.69
2023-03-08T06:14:01.457Z,99783.75
2023-03-08T06:19:08.061Z,99783.34
2023-03-08T06:24:11.772Z,99782.19
2023-03-08T06:29:16.191Z,99784.25
2023-03-08T06:34:20.385Z,99776.97
2023-03-08T06:39:30.907Z,99776.69
2023-03-08T06:44:34.827Z,99778.34
2023-03-08T06:49:38.878Z,99776.16
2023-03-08T06:54:43.486Z,99781.41
2023-03-08T06:59:45.253Z,99769.25
2023-03-08T07:04:49.285Z,99775.50
2023-03-08T07:09:51.328Z,99767.50
2023-03-08T07:14:55.171Z,99766.81
2023-03-08T07:19:56.999Z,99759.25
2023-03-08T07:25:01.214Z,99761.88
2023-03-08T07:30:06.124Z,99755.97
2023-03-08T07:35:11.663Z,99745.91
2023-03-08T07:40:16.258Z,99749.41
2023-03-08T07:45:20.401Z,99739.03
2023-03-08T07:50:22.368Z,99751.63
2023-03-08T07:55:27.614Z,99762.81
2023-03-08T08:00:29.450Z,99761.53
2023-03-08T08:05:34.700Z,99771.34
2023-03-08T08:10:36.493Z,99766.06
2023-03-08T08:15:40.749Z,99768.78
2023-03-08T08:20:45.036Z,99767.47
2023-03-08T08:25:47.760Z,99782.25
2023-03-08T08:31:02.196Z,99776.63
2023-03-08T08:36:09.513Z,99757.22
2023-03-08T08:41:11.332Z,99759.47
2023-03-08T08:46:13.694Z,99770.97
2023-03-08T08:51:15.511Z,99770.06
2023-03-08T08:56:26.729Z,99761.31
2023-03-08T09:01:32.152Z,99763.03
2023-03-08T09:06:33.810Z,99771.94
2023-03-08T09:11:48.475Z,99764.81
2023-03-08T09:16:55.328Z,99767.38
2023-03-08T09:21:57.021Z,99746.31
2023-03-08T09:27:01.021Z,99748.69
2023-03-08T09:32:06.094Z,99741.31
2023-03-08T09:37:08.362Z,99740.16
2023-03-08T09:42:32.657Z,99732.03
2023-03-08T09:47:49.242Z,99740.03
2023-03-08T09:53:09.629Z,99736.25
2023-03-08T09:58:25.751Z,99727.69
2023-03-08T10:03:46.485Z,99727.59
2023-03-08T10:09:02.191Z,99733.38
2023-03-08T10:14:17.733Z,99723.38
2023-03-08T10:19:29.048Z,99715.47
2023-03-08T10:24:45.253Z,99713.00
2023-03-08T10:29:55.440Z,99706.91
2023-03-08T10:35:04.828Z,99705.09
2023-03-08T10:40:11.033Z,99705.63
2023-03-08T10:45:22.258Z,99708.94
2023-03-08T10:50:38.189Z,99704.84
2023-03-08T10:55:47.822Z,99699.03
2023-03-08T11:00:53.298Z,99691.06
2023-03-08T11:06:13.506Z,99688.41
2023-03-08T11:11:18.066Z,99686.66
2023-03-08T11:16:47.846Z,99676.75
2023-03-08T11:22:03.817Z,99680.75
2023-03-08T11:27:30.303Z,99682.72
2023-03-08T11:32:57.898Z,99674.28
2023-03-08T11:38:28.974Z,99672.94
2023-03-08T11:44:02.005Z,99669.41
2023-03-08T11:49:14.944Z,99664.97
2023-03-08T11:54:49.410Z,99658.06
2023-03-08T12:00:00.970Z,99650.03
2023-03-08T12:05:20.189Z,99651.09
2023-03-08T12:10:24.790Z,99648.81
2023-03-08T12:15:29.985Z,99648.66
2023-03-08T12:20:41.523Z,99646.41
2023-03-08T12:25:47.616Z,99640.56
2023-03-08T12:31:01.309Z,99639.25
2023-03-08T12:36:07.307Z,99631.25
2023-03-08T12:41:24.011Z,99634.34
2023-03-08T12:46:25.858Z,99636.78
2023-03-08T12:51:32.843Z,99637.72
2023-03-08T12:56:37.224Z,99644.25
2023-03-08T13:01:45.346Z,99642.22
2023-03-08T13:07:05.858Z,99643.75
2023-03-08T13:12:40.795Z,99641.06
2023-03-08T13:18:00.528Z,99650.78
2023-03-08T13:23:04.846Z,99650.44
2023-03-08T13:28:46.637Z,99645.97
2023-03-08T13:33:51.990Z,99642.84
2023-03-08T13:39:01.237Z,99637.28
2023-03-08T13:44:07.578Z,99641.53
2023-03-08T13:49:25.577Z,99642.25
2023-03-08T13:54:35.746Z,99635.44
2023-03-08T13:59:38.110Z,99638.59
2023-03-08T14:04:42.977Z,99638.19
2023-03-08T14:09:44.794Z,99622.00
2023-03-08T14:14:52.500Z,99616.75
2023-03-08T14:20:02.380Z,99617.09
2023-03-08T14:25:05.209Z,99628.88
2023-03-08T14:30:17.749Z,99621.81
2023-03-08T14:35:25.883Z,99615.47
2023-03-08T14:40:29.946Z,99618.72
2023-03-08T14:45:50.533Z,99610.53
2023-03-08T14:51:00.291Z,99614.25
2023-03-08T14:56:10.972Z,99601.13
2023-03-08T15:01:12.961Z,99602.34
2023-03-08T15:06:23.094Z,99591.34
2023-03-08T15:11:25.020Z,99590.16
2023-03-08T15:16:29.837Z,99591.41
2023-03-08T15:21:36.117Z,99592.56
2023-03-08T15:26:37.770Z,99597.63
2023-03-08T15:31:39.557Z,99601.03
2023-03-08T15:36:45.978Z,99596.69
2023-03-08T15:41:50.205Z,99591.63
2023-03-08T15:46:52.990Z,99582.94
2023-03-08T15:51:59.282Z,99576.06
2023-03-08T15:57:00.962Z,99569.66
2023-03-08T16:02:02.788Z,99561.88
2023-03-08T16:07:04.541Z,99570.88
2023-03-08T16:12:09.083Z,99570.91
2023-03-08T16:17:16.907Z,99571.44
2023-03-08T16:22:26.856Z,99574.72
2023-03-08T16:27:35.446Z,99571.75
2023-03-08T16:32:40.581Z,99578.78
2023-03-08T16:37:44.698Z,99577.72
2023-03-08T16:42:57.982Z,99578.78
2023-03-08T16:48:00.461Z,99590.69
2023-03-08T16:53:02.145Z,99597.97
2023-03-08T16:58:06.346Z,99603.38
2023-03-08T17:03:12.693Z,99586.63
2023-03-08T17:08:14.425Z,99592.31
2023-03-08T17:13:20.981Z,99595.56
2023-03-08T17:18:26.088Z,99586.91
2023-03-08T17:23:30.075Z,99600.66
2023-03-08T17:28:32.444Z,99603.91
2023-03-08T17:33:36.474Z,99597.13
2023-03-08T17:38:42.635Z,99595.75
2023-03-08T17:43:46.685Z,99598.72
2023-03-08T17:48:51.571Z,99595.69
2023-03-08T17:53:54.329Z,99588.69
2023-03-08T17:58:57.747Z,99581.91
2023-03-08T18:03:59.880Z,99573.50
2023-03-08T18:09:09.617Z,99588.69
2023-03-08T18:14:13.425Z,99584.06
2023-03-08T18:19:15.233Z,99579.75
2023-03-08T18:24:17.102Z,99567.59
2023-03-08T18:29:21.822Z,99567.63
2023-03-08T18:34:28.923Z,99558.75
2023-03-08T18:39:30.840Z,99555.25
2023-03-08T18:44:34.828Z,99569.09
2023-03-08T18:49:38.867Z,99564.47
2023-03-08T18:54:43.618Z,99563.44
2023-03-08T18:59:45.730Z,99557.72
2023-03-08T19:04:47.794Z,99552.31
2023-03-08T19:09:56.971Z,99551.50
2023-03-08T19:14:58.704Z,99541.25
2023-03-08T19:20:00.443Z,99550.47
2023-03-08T19:25:02.375Z,99556.66
2023-03-08T19:30:04.437Z,99570.44
2023-03-08T19:35:06.901Z,99566.59
2023-03-08T19:40:09.787Z,99577.41
2023-03-08T19:45:13.320Z,99584.63
2023-03-08T19:50:20.109Z,99571.09
2023-03-08T19:55:21.939Z,99570.78
2023-03-08T20:00:28.833Z,99570.75
2023-03-08T20:05:42.437Z,99580.44
2023-03-08T20:10:44.146Z,99590.69
2023-03-08T20:15:46.401Z,99584.72
2023-03-08T20:20:48.304Z,99595.78
2023-03-08T20:25:50.020Z,99604.16
2023-03-08T20:30:52.489Z,99598.44
2023-03-08T20:35:58.110Z,99577.06
2023-03-08T20:41:00.927Z,99574.75
2023-03-08T20:46:07.697Z,99575.13
2023-03-08T20:51:12.707Z,99573.53
2023-03-08T20:56:16.728Z,99576.22
2023-03-08T21:01:30.599Z,99574.44
2023-03-08T21:06:37.141Z,99581.78
2023-03-08T21:11:38.961Z,99577.41
2023-03-08T21:16:40.832Z,99567.94
2023-03-08T21:21:45.533Z,99551.56
2023-03-08T21:26:47.899Z,99548.88
2023-03-08T21:31:52.685Z,99541.59
2023-03-08T21:36:59.320Z,99551.97
2023-03-08T21:42:01.022Z,99563.97
2023-03-08T21:47:02.734Z,99556.53
2023-03-08T21:52:09.555Z,99548.91
2023-03-08T21:57:11.418Z,99546.59
2023-03-08T22:02:13.156Z,99551.22
2023-03-08T22:07:14.878Z,99545.56
2023-03-08T22:12:16.646Z,99553.91
2023-03-08T22:17:18.316Z,99560.25
2023-03-08T22:22:22.583Z,99550.59
2023-03-08T22:27:28.207Z,99549.72
2023-03-08T22:32:32.164Z,99558.06
2023-03-08T22:37:37.192Z,99558.63
2023-03-08T22:42:41.944Z,99564.28
2023-03-08T22:47:43.900Z,99555.31
2023-03-08T22:52:48.566Z,99545.41
2023-03-08T22:57:52.467Z,99548.63
2023-03-08T23:02:57.738Z,99551.38
2023-03-08T23:07:59.442Z,99542.97
2023-03-08T23:13:03.746Z,99535.81
2023-03-08T23:18:05.530Z,99536.28
2023-03-08T23:23:11.921Z,99540.25
2023-03-08T23:28:18.848Z,99533.50
2023-03-08T23:33:20.766Z,99539.22
2023-03-08T23:38:24.695Z,99529.38
2023-03-08T23:43:26.390Z,99527.41
2023-03-08T23:48:30.610Z,99534.47
2023-03-08T23:53:32.356Z,99527.09
2023-03-08T23:58:34.116Z,99522.66
